Terminal Aerodrome Forecast
Issued by NWS

Home | Current Version | Previous Version | Text Only | Print | Product List | Glossary On
Versions: 1 2 3 4 5 6 7 8 9 10 11 12
000
FTUS45 KABQ 310500
TAFGUP
TAF
KGUP 310536Z 3106/0106 12005KT P6SM SCT250
     FM311700 16013KT P6SM SCT150
     FM312000 19015KT P6SM SCT150
     FM312300 17011KT P6SM VCSH SCT050 SCT150=

USA.gov is the U.S. government's official web portal to all federal, state and local government web resources and services.